Time;durP1;ratioP1;P1;durP2;ratioP2;P2;SDS_P1;SDS_P2;PMS_P1;PMS_P2;Temp;Humidity;BMP_temperature;BMP_pressure;BME280_temperature;BME280_humidity;BME280_pressure;Samples;Min_cycle;Max_cycle;Signal;HPM_P1;HPM_P2
2021/11/26 00:01:02;;;;;;;29.10;15.65;;;;;;;10.70;50.30;100094.84;5018816;28;96729;-80
2021/11/26 00:03:29;;;;;;;30.40;15.93;;;;;;;10.54;51.13;100092.97;5015944;28;99659;-80
2021/11/26 00:05:55;;;;;;;34.03;14.93;;;;;;;10.37;51.28;100084.03;5018497;28;99376;-80
2021/11/26 00:08:23;;;;;;;29.80;14.75;;;;;;;10.63;50.46;100096.03;5018405;28;97291;-80
2021/11/26 00:10:50;;;;;;;29.90;14.90;;;;;;;10.67;50.69;100087.06;5021979;28;97055;-79
2021/11/26 00:13:17;;;;;;;38.08;15.43;;;;;;;10.81;50.11;100081.16;5023671;28;97764;-78
2021/11/26 00:15:44;;;;;;;30.15;15.73;;;;;;;10.89;49.95;100079.00;5017393;28;98800;-79
2021/11/26 00:18:18;;;;;;;29.77;15.10;;;;;;;10.98;49.75;100075.03;5017311;28;97325;-80
2021/11/26 00:20:46;;;;;;;37.00;14.82;;;;;;;10.93;49.93;100072.63;5017171;28;96863;-79
2021/11/26 00:23:13;;;;;;;29.17;14.38;;;;;;;10.09;52.39;100075.59;5019701;28;98964;-79
2021/11/26 00:25:42;;;;;;;30.98;13.82;;;;;;;10.60;50.83;100071.56;5016394;28;99145;-80
2021/11/26 00:28:09;;;;;;;37.33;15.10;;;;;;;10.90;50.52;100072.75;5016577;28;96679;-79
2021/11/26 00:30:35;;;;;;;27.13;13.80;;;;;;;9.87;51.89;100065.13;5015891;28;97898;-80
2021/11/26 00:33:02;;;;;;;35.58;17.10;;;;;;;10.07;52.67;100068.66;5016949;28;101811;-80
2021/11/26 00:35:29;;;;;;;41.63;19.83;;;;;;;10.63;51.01;100066.97;5016021;28;97134;-79
2021/11/26 00:37:55;;;;;;;34.67;14.75;;;;;;;10.34;51.36;100070.13;5016673;28;97084;-80
2021/11/26 00:40:22;;;;;;;35.03;14.00;;;;;;;10.20;51.53;100076.00;5021467;28;96751;-80
2021/11/26 00:42:50;;;;;;;31.10;14.60;;;;;;;10.59;50.81;100065.41;5017510;28;98026;-80
2021/11/26 00:45:17;;;;;;;35.15;14.52;;;;;;;10.79;50.43;100068.00;5018949;28;99217;-79
2021/11/26 00:47:44;;;;;;;30.02;15.60;;;;;;;10.83;49.51;100068.69;5019477;28;96968;-79
2021/11/26 00:50:14;;;;;;;33.00;13.40;;;;;;;10.74;49.89;100063.84;5020074;28;96762;-79
2021/11/26 00:52:43;;;;;;;28.65;13.70;;;;;;;10.84;50.10;100056.34;5020908;28;97179;-79
2021/11/26 00:55:11;;;;;;;31.08;14.25;;;;;;;10.72;49.82;100049.84;5024249;28;100893;-79
2021/11/26 00:57:38;;;;;;;29.35;13.73;;;;;;;10.59;50.23;100057.50;5026476;28;96815;-79
2021/11/26 01:00:10;;;;;;;29.95;14.00;;;;;;;10.68;49.98;100051.78;5024787;28;96695;-79
2021/11/26 01:02:38;;;;;;;36.42;13.75;;;;;;;10.40;49.72;100048.72;5019982;28;99403;-80
2021/11/26 01:05:07;;;;;;;33.70;14.15;;;;;;;10.32;50.82;100050.84;5022931;28;99201;-80
2021/11/26 01:07:33;;;;;;;28.95;14.02;;;;;;;10.73;50.22;100048.94;5025034;28;96688;-80
2021/11/26 01:10:00;;;;;;;29.40;13.15;;;;;;;10.49;50.52;100055.38;5019083;28;96817;-80
2021/11/26 01:12:27;;;;;;;35.30;13.18;;;;;;;10.74;49.81;100046.22;5018796;28;101588;-80
2021/11/26 01:14:53;;;;;;;30.85;13.52;;;;;;;10.85;49.67;100034.28;5018819;28;98417;-80
2021/11/26 01:17:21;;;;;;;33.60;14.80;;;;;;;10.77;49.57;100038.13;5018563;28;97081;-80
2021/11/26 01:19:48;;;;;;;25.40;12.75;;;;;;;10.82;49.75;100037.06;5017655;28;96826;-81
2021/11/26 01:22:15;;;;;;;27.80;12.68;;;;;;;10.86;49.31;100039.50;5016754;28;97640;-79
2021/11/26 01:24:42;;;;;;;31.17;12.05;;;;;;;10.38;49.75;100029.41;5013089;28;98912;-78
2021/11/26 01:27:08;;;;;;;25.70;12.57;;;;;;;10.67;50.04;100028.94;5018127;28;96961;-79
2021/11/26 01:29:35;;;;;;;28.15;12.93;;;;;;;10.77;48.91;100026.69;5022962;28;98694;-80
2021/11/26 01:32:02;;;;;;;26.70;12.68;;;;;;;11.03;49.08;100025.44;5025699;28;101767;-80
2021/11/26 01:34:30;;;;;;;25.08;12.07;;;;;;;10.64;49.19;100029.06;5034013;28;98955;-79
2021/11/26 01:36:57;;;;;;;33.45;12.48;;;;;;;10.34;50.49;100031.34;5035896;28;96756;-78
2021/11/26 01:39:26;;;;;;;28.52;12.38;;;;;;;10.41;50.50;100029.28;5035423;28;97517;-79
2021/11/26 01:41:54;;;;;;;27.42;12.38;;;;;;;10.81;49.84;100022.16;5033369;28;97883;-79
2021/11/26 01:44:21;;;;;;;31.15;12.32;;;;;;;10.87;49.38;100028.00;5029273;28;97170;-80
2021/11/26 01:46:47;;;;;;;24.60;12.35;;;;;;;11.06;48.81;100012.09;5021924;28;96640;-79
2021/11/26 01:49:15;;;;;;;32.28;12.10;;;;;;;11.00;48.67;100012.41;5017392;28;97167;-79
2021/11/26 01:51:44;;;;;;;26.20;11.18;;;;;;;11.01;49.18;100014.97;5014929;28;98928;-80
2021/11/26 01:54:11;;;;;;;27.70;10.95;;;;;;;10.84;49.22;100011.41;5016454;28;97544;-81
2021/11/26 01:56:38;;;;;;;27.48;11.57;;;;;;;10.51;50.05;100014.72;5011721;28;97495;-81
2021/11/26 01:59:05;;;;;;;31.02;12.20;;;;;;;10.42;50.34;100014.31;5014070;28;97105;-81
2021/11/26 02:01:34;;;;;;;24.65;12.15;;;;;;;10.72;49.94;100003.16;5012560;28;98575;-80
2021/11/26 02:04:04;;;;;;;30.85;12.05;;;;;;;10.92;49.32;99996.03;5016457;28;101111;-80
2021/11/26 02:06:30;;;;;;;30.38;12.88;;;;;;;10.72;49.72;100004.94;5015650;28;98298;-80
2021/11/26 02:09:00;;;;;;;30.48;12.77;;;;;;;10.24;51.42;99992.25;5016372;28;96908;-79
2021/11/26 02:11:26;;;;;;;29.52;12.10;;;;;;;10.60;50.40;99995.81;5017807;28;100570;-79
2021/11/26 02:13:53;;;;;;;29.65;13.10;;;;;;;10.59;50.52;99985.31;5018864;28;98824;-79
2021/11/26 02:16:20;;;;;;;30.17;11.98;;;;;;;10.59;49.88;99983.53;5020461;28;96678;-80
2021/11/26 02:18:48;;;;;;;35.03;13.93;;;;;;;10.97;49.23;99986.09;5035382;28;97399;-80
2021/11/26 02:21:19;;;;;;;37.63;12.90;;;;;;;11.00;49.03;99978.03;5021596;27;99068;-79
2021/11/26 02:23:46;;;;;;;27.13;11.00;;;;;;;10.92;49.40;99974.91;5019896;28;99179;-80
2021/11/26 02:26:13;;;;;;;34.03;12.32;;;;;;;10.73;49.79;99957.31;5017428;28;96831;-81
2021/11/26 02:28:41;;;;;;;28.23;12.40;;;;;;;10.36;50.12;99962.63;5018335;28;97698;-80
2021/11/26 02:31:08;;;;;;;32.75;13.07;;;;;;;10.39;50.93;99967.75;5018235;28;96846;-79
2021/11/26 02:33:35;;;;;;;33.05;12.52;;;;;;;9.77;52.07;99958.28;5017644;28;98084;-79
2021/11/26 02:36:02;;;;;;;30.67;12.75;;;;;;;10.16;51.22;99945.06;5018693;28;96895;-80
2021/11/26 02:38:30;;;;;;;22.27;11.40;;;;;;;10.48;50.53;99940.94;5017414;28;96865;-80
2021/11/26 02:40:56;;;;;;;27.05;12.70;;;;;;;10.42;50.38;99945.63;5017986;28;97692;-79
2021/11/26 02:43:24;;;;;;;29.92;13.10;;;;;;;10.46;50.66;99945.41;5018188;28;97686;-79
2021/11/26 02:45:51;;;;;;;33.60;13.48;;;;;;;10.59;49.47;99933.31;5017519;28;97530;-79
2021/11/26 02:48:18;;;;;;;29.45;12.73;;;;;;;10.65;50.29;99935.66;5017851;28;96754;-78
2021/11/26 02:50:48;;;;;;;34.30;13.77;;;;;;;10.98;49.73;99935.81;5014987;28;99446;-79
2021/11/26 02:53:15;;;;;;;29.80;14.27;;;;;;;11.08;48.98;99929.13;5019077;28;99557;-80
2021/11/26 02:55:43;;;;;;;27.92;13.48;;;;;;;10.61;50.14;99931.47;5016441;28;96882;-80
2021/11/26 02:58:11;;;;;;;34.97;13.80;;;;;;;10.85;49.73;99933.84;5016602;28;96870;-79
2021/11/26 03:00:41;;;;;;;32.83;13.73;;;;;;;10.89;49.34;99936.28;5009700;28;101098;-79
2021/11/26 03:03:08;;;;;;;28.55;13.38;;;;;;;10.87;49.75;99932.00;5017254;28;101874;-80
2021/11/26 03:05:35;;;;;;;34.42;14.43;;;;;;;10.71;49.90;99924.81;5017923;28;97585;-80
2021/11/26 03:08:02;;;;;;;30.00;13.52;;;;;;;10.85;49.52;99928.56;5017009;28;96814;-79
2021/11/26 03:10:30;;;;;;;34.47;13.13;;;;;;;10.99;49.64;99920.81;5018310;28;98877;-80
2021/11/26 03:13:02;;;;;;;28.25;13.02;;;;;;;10.90;49.40;99916.81;5019387;28;98849;-79
2021/11/26 03:15:30;;;;;;;36.58;13.88;;;;;;;10.94;49.49;99923.69;5019590;28;97115;-79
2021/11/26 03:17:57;;;;;;;33.95;13.90;;;;;;;10.56;50.11;99915.00;5014388;28;96810;-81
2021/11/26 03:20:25;;;;;;;30.33;13.35;;;;;;;10.30;50.94;99912.75;5017953;28;100996;-81
2021/11/26 03:22:52;;;;;;;36.78;14.13;;;;;;;10.35;50.57;99914.25;5019537;28;98066;-80
2021/11/26 03:25:19;;;;;;;36.20;14.88;;;;;;;10.78;49.98;99906.84;5019312;28;97214;-81
2021/11/26 03:27:46;;;;;;;27.70;14.23;;;;;;;10.83;49.76;99918.06;5020481;28;96817;-79
2021/11/26 03:30:16;;;;;;;30.27;13.30;;;;;;;10.83;49.80;99904.00;5017969;28;100034;-80
2021/11/26 03:32:43;;;;;;;31.15;13.55;;;;;;;10.51;50.33;99898.50;5018032;28;99446;-79
2021/11/26 03:35:11;;;;;;;36.42;14.13;;;;;;;10.84;49.65;99900.41;5021195;28;96876;-81
2021/11/26 03:37:40;;;;;;;40.20;14.98;;;;;;;11.04;49.17;99903.78;5022784;28;96929;-80
2021/11/26 03:40:09;;;;;;;32.78;13.68;;;;;;;11.05;48.67;99904.63;5021175;28;97405;-80
2021/11/26 03:42:40;;;;;;;28.00;12.27;;;;;;;11.06;49.08;99895.78;5023583;28;100759;-81
2021/11/26 03:45:08;;;;;;;28.42;14.02;;;;;;;10.89;49.15;99898.41;5018075;28;96985;-80
2021/11/26 03:47:37;;;;;;;30.73;14.07;;;;;;;11.04;49.01;99901.13;5017381;28;97355;-79
2021/11/26 03:50:05;;;;;;;29.90;14.32;;;;;;;11.05;48.79;99896.69;5017248;28;100815;-80
2021/11/26 03:52:32;;;;;;;31.80;12.95;;;;;;;10.92;49.55;99895.59;5017230;28;98936;-79
2021/11/26 03:54:58;;;;;;;27.38;12.60;;;;;;;10.53;50.55;99896.66;5020396;28;96831;-79
2021/11/26 03:57:25;;;;;;;36.70;13.50;;;;;;;10.83;49.94;99894.25;5019067;28;96728;-80
2021/11/26 03:59:51;;;;;;;30.80;13.30;;;;;;;10.90;49.97;99890.38;5015571;28;98912;-80
2021/11/26 04:02:18;;;;;;;30.70;12.73;;;;;;;10.92;49.61;99892.97;5017980;28;100461;-80
2021/11/26 04:04:46;;;;;;;30.55;13.35;;;;;;;10.88;49.83;99887.00;5015895;28;98612;-79
2021/11/26 04:07:13;;;;;;;39.42;14.57;;;;;;;10.75;49.65;99886.75;5015341;28;96818;-80
2021/11/26 04:09:40;;;;;;;30.73;13.43;;;;;;;10.67;49.73;99883.63;5016049;28;98800;-79
2021/11/26 04:12:08;;;;;;;31.63;13.02;;;;;;;10.72;49.69;99884.25;5014740;28;101456;-78
2021/11/26 04:14:34;;;;;;;32.85;13.02;;;;;;;10.82;49.72;99882.00;5017484;28;97379;-79
2021/11/26 04:17:01;;;;;;;32.47;11.65;;;;;;;10.84;49.43;99882.75;5016600;28;97189;-79
2021/11/26 04:19:28;;;;;;;27.42;12.13;;;;;;;10.96;48.92;99887.44;5016029;28;99266;-79
2021/11/26 04:21:56;;;;;;;26.95;11.18;;;;;;;10.80;48.99;99878.59;5017112;28;98655;-80
2021/11/26 04:24:23;;;;;;;31.65;12.05;;;;;;;10.71;49.20;99879.88;5017063;28;96723;-79
2021/11/26 04:26:50;;;;;;;29.00;11.07;;;;;;;10.30;50.43;99862.59;5016314;28;96739;-79
2021/11/26 04:29:18;;;;;;;24.63;11.10;;;;;;;10.55;49.25;99860.47;5015638;28;97349;-80
2021/11/26 04:31:45;;;;;;;27.73;10.57;;;;;;;10.55;49.58;99865.75;5015208;28;99575;-80
2021/11/26 04:34:11;;;;;;;30.73;11.77;;;;;;;10.69;49.25;99863.28;5013099;28;96771;-80
2021/11/26 04:36:38;;;;;;;27.23;11.13;;;;;;;10.40;50.24;99863.84;5015097;28;97018;-78
2021/11/26 04:39:06;;;;;;;27.10;11.40;;;;;;;10.58;49.49;99860.28;5013624;28;99186;-79
2021/11/26 04:41:33;;;;;;;30.88;11.63;;;;;;;10.71;49.26;99850.81;5015302;28;99550;-79
2021/11/26 04:44:00;;;;;;;30.27;11.57;;;;;;;10.78;48.98;99854.88;5016926;28;97135;-79
2021/11/26 04:46:26;;;;;;;28.42;10.70;;;;;;;10.62;49.29;99848.66;5015012;28;96798;-79
2021/11/26 04:48:53;;;;;;;36.70;11.15;;;;;;;10.64;49.69;99849.41;5014488;28;99283;-78
2021/11/26 04:51:19;;;;;;;32.53;11.65;;;;;;;10.89;48.74;99840.28;5014643;28;99380;-79
2021/11/26 04:53:46;;;;;;;31.42;11.30;;;;;;;10.92;48.66;99846.25;5012010;28;96855;-79
2021/11/26 04:56:14;;;;;;;29.65;11.55;;;;;;;10.92;48.50;99842.75;5014274;28;96916;-79
2021/11/26 04:58:40;;;;;;;27.02;10.95;;;;;;;11.07;48.59;99848.09;5012993;28;101570;-79
2021/11/26 05:01:07;;;;;;;34.88;12.07;;;;;;;11.01;48.84;99843.13;5016964;28;101167;-79
2021/11/26 05:03:34;;;;;;;26.58;11.10;;;;;;;11.02;48.69;99846.63;5013616;28;97625;-79
2021/11/26 05:06:01;;;;;;;28.88;11.23;;;;;;;11.10;48.56;99845.28;5014461;28;96783;-79
2021/11/26 05:08:27;;;;;;;27.80;11.45;;;;;;;10.84;48.85;99844.91;5011492;28;99217;-79
2021/11/26 05:10:55;;;;;;;29.38;11.70;;;;;;;10.93;49.26;99831.25;5013149;28;101527;-79
2021/11/26 05:13:26;;;;;;;35.63;11.20;;;;;;;11.02;48.87;99838.72;5018342;28;96787;-79
2021/11/26 05:15:52;;;;;;;32.97;11.55;;;;;;;10.95;48.50;99829.38;5030946;28;96345;-79
2021/11/26 05:18:23;;;;;;;25.38;10.55;;;;;;;10.91;48.66;99830.44;5032868;28;101635;-79
2021/11/26 05:20:50;;;;;;;27.48;10.23;;;;;;;10.87;48.58;99826.28;5036842;28;97911;-79
2021/11/26 05:23:18;;;;;;;23.00;9.45;;;;;;;10.89;48.83;99825.28;5035124;27;96746;-79
2021/11/26 05:25:44;;;;;;;23.75;9.98;;;;;;;10.99;48.58;99807.13;5032305;28;97953;-79
2021/11/26 05:28:11;;;;;;;24.90;9.05;;;;;;;11.22;48.28;99811.22;5031030;28;98004;-78
2021/11/26 05:30:39;;;;;;;26.20;9.65;;;;;;;11.15;48.09;99808.06;5025157;28;101311;-79
2021/11/26 05:33:07;;;;;;;23.90;9.23;;;;;;;11.10;47.45;99804.78;5026549;28;96877;-79
2021/11/26 05:35:34;;;;;;;31.33;10.10;;;;;;;11.01;48.23;99792.91;5018911;28;98519;-79
2021/11/26 05:38:00;;;;;;;26.40;9.20;;;;;;;11.21;47.78;99799.78;5015586;28;100685;-80
2021/11/26 05:40:27;;;;;;;30.08;9.45;;;;;;;11.01;48.04;99798.19;5023611;28;101554;-79
2021/11/26 05:42:53;;;;;;;30.77;11.18;;;;;;;10.52;49.76;99805.13;5010090;28;97165;-77
2021/11/26 05:45:20;;;;;;;26.23;10.43;;;;;;;10.78;49.32;99798.50;5016157;28;97262;-79
2021/11/26 05:47:49;;;;;;;24.45;9.70;;;;;;;11.05;48.72;99802.38;5014041;28;98973;-80
2021/11/26 05:50:18;;;;;;;23.77;10.10;;;;;;;10.92;48.92;99798.66;5018310;28;98035;-80
2021/11/26 05:52:45;;;;;;;28.70;11.77;;;;;;;10.87;49.36;99792.78;5016863;28;98580;-79
2021/11/26 05:55:14;;;;;;;29.10;11.90;;;;;;;11.00;49.55;99783.28;5016691;28;96726;-79
2021/11/26 05:57:41;;;;;;;31.63;12.18;;;;;;;10.85;49.29;99780.56;5015236;28;97851;-79
2021/11/26 06:00:14;;;;;;;29.33;11.50;;;;;;;10.95;49.31;99779.16;5017420;28;101248;-79
2021/11/26 06:02:41;;;;;;;34.35;12.68;;;;;;;11.08;49.27;99778.44;5016717;28;97786;-79
2021/11/26 06:05:09;;;;;;;29.98;12.23;;;;;;;10.89;49.08;99784.78;5017829;28;96731;-79
2021/11/26 06:07:36;;;;;;;32.00;12.27;;;;;;;10.89;49.44;99787.41;5018007;28;98087;-79
2021/11/26 06:10:05;;;;;;;25.98;11.90;;;;;;;10.80;50.16;99783.44;5016145;28;99016;-78
2021/11/26 06:12:31;;;;;;;30.42;12.55;;;;;;;10.82;49.90;99781.59;5019713;28;96904;-78
2021/11/26 06:14:58;;;;;;;38.28;12.75;;;;;;;10.89;49.80;99787.41;5021829;28;96762;-78
2021/11/26 06:17:24;;;;;;;24.52;11.23;;;;;;;10.65;49.82;99785.06;5026577;28;96914;-79
2021/11/26 06:19:51;;;;;;;30.02;11.90;;;;;;;10.85;49.91;99783.19;5022246;27;98973;-79
2021/11/26 06:22:19;;;;;;;25.73;11.32;;;;;;;10.81;49.49;99786.94;5009158;28;98866;-77
2021/11/26 06:24:45;;;;;;;33.45;11.13;;;;;;;10.78;49.62;99785.31;5019580;28;96844;-80
2021/11/26 06:27:11;;;;;;;26.67;10.60;;;;;;;10.82;49.92;99786.00;5020999;28;99363;-78
2021/11/26 06:29:38;;;;;;;27.80;10.35;;;;;;;10.83;49.67;99793.00;5023448;28;97716;-79
2021/11/26 06:32:05;;;;;;;24.15;11.38;;;;;;;10.82;49.49;99778.94;5021450;28;97221;-78
2021/11/26 06:34:32;;;;;;;29.00;11.25;;;;;;;10.81;49.49;99781.66;5017323;28;96887;-78
2021/11/26 06:36:58;;;;;;;30.33;10.93;;;;;;;10.86;48.69;99777.84;5018872;28;97925;-78
2021/11/26 06:39:26;;;;;;;28.45;11.32;;;;;;;10.90;48.58;99774.09;5016825;28;97693;-79
2021/11/26 06:41:52;;;;;;;23.58;9.85;;;;;;;10.80;48.72;99770.22;5009686;28;96880;-78
2021/11/26 06:44:19;;;;;;;25.23;9.15;;;;;;;10.76;48.79;99777.44;5015763;28;98284;-77
2021/11/26 06:46:45;;;;;;;29.67;9.50;;;;;;;10.74;48.43;99767.91;5011055;28;100463;-78
2021/11/26 06:49:12;;;;;;;23.98;8.75;;;;;;;10.70;48.67;99761.91;5012792;28;99262;-78
2021/11/26 06:51:39;;;;;;;25.85;8.52;;;;;;;10.46;48.76;99757.88;5016324;28;98864;-78
2021/11/26 06:54:06;;;;;;;24.65;9.25;;;;;;;10.67;48.16;99766.50;5016315;28;97009;-78
2021/11/26 06:56:34;;;;;;;28.55;9.35;;;;;;;10.46;48.49;99757.03;5014015;28;100874;-78
2021/11/26 06:59:03;;;;;;;25.25;9.90;;;;;;;10.52;48.66;99762.00;5014136;28;98402;-79
2021/11/26 07:01:30;;;;;;;18.83;8.05;;;;;;;10.55;48.62;99757.44;5013548;28;96831;-79
2021/11/26 07:03:58;;;;;;;24.27;8.82;;;;;;;10.44;48.45;99749.19;5016576;28;96865;-80
2021/11/26 07:06:24;;;;;;;28.92;9.02;;;;;;;10.39;49.00;99754.69;5019424;28;99037;-79
2021/11/26 07:08:51;;;;;;;26.17;9.02;;;;;;;10.65;48.16;99755.16;5015123;28;97743;-79
2021/11/26 07:11:17;;;;;;;24.40;9.18;;;;;;;10.67;47.88;99756.81;5020426;28;96767;-80
2021/11/26 07:13:45;;;;;;;24.05;9.02;;;;;;;10.67;48.19;99751.53;5021355;28;97314;-79
2021/11/26 07:16:12;;;;;;;26.75;8.50;;;;;;;10.79;47.64;99761.44;5014841;28;99180;-78
2021/11/26 07:18:39;;;;;;;30.75;10.07;;;;;;;10.68;48.00;99769.09;5020483;28;97821;-78
2021/11/26 07:21:06;;;;;;;25.95;10.05;;;;;;;10.74;47.75;99766.13;5010668;28;97468;-78
2021/11/26 07:23:33;;;;;;;23.63;8.32;;;;;;;10.50;48.35;99759.44;4997131;28;98445;-78
2021/11/26 07:25:59;;;;;;;21.58;8.45;;;;;;;10.47;48.23;99751.69;5001531;28;101200;-79
2021/11/26 07:28:26;;;;;;;25.40;8.20;;;;;;;10.67;47.63;99750.66;5021101;28;98942;-80
2021/11/26 07:30:55;;;;;;;21.88;8.32;;;;;;;10.89;47.34;99751.28;5020665;28;97338;-80
2021/11/26 07:33:22;;;;;;;20.70;10.10;;;;;;;10.91;47.21;99746.72;5020087;28;96877;-80
2021/11/26 07:35:48;;;;;;;36.95;10.45;;;;;;;10.68;47.21;99737.38;5021028;28;99406;-80
2021/11/26 07:38:15;;;;;;;26.50;8.52;;;;;;;10.94;47.13;99748.38;5023699;28;97807;-82
2021/11/26 07:40:42;;;;;;;22.73;8.60;;;;;;;11.12;46.64;99736.81;5026317;28;96808;-80
2021/11/26 07:43:09;;;;;;;23.17;8.07;;;;;;;11.12;46.09;99742.09;5011953;28;97270;-79
2021/11/26 07:45:35;;;;;;;24.50;7.63;;;;;;;11.02;46.71;99741.75;5017180;28;101549;-78
2021/11/26 07:48:04;;;;;;;24.98;8.68;;;;;;;11.15;46.46;99736.66;5011165;28;99761;-80
2021/11/26 07:50:33;;;;;;;29.05;8.18;;;;;;;11.01;46.56;99734.75;5010314;28;97293;-82
2021/11/26 07:53:00;;;;;;;24.25;9.07;;;;;;;10.91;46.61;99733.53;5031474;28;98523;-82
2021/11/26 07:55:27;;;;;;;26.17;7.72;;;;;;;10.87;46.95;99725.84;5020570;28;99699;-82
2021/11/26 07:57:54;;;;;;;22.00;7.22;;;;;;;11.18;45.94;99720.63;5032902;28;99855;-82
2021/11/26 08:00:20;;;;;;;21.52;7.93;;;;;;;11.33;45.92;99725.09;5031152;28;96663;-82
2021/11/26 08:02:47;;;;;;;22.98;7.90;;;;;;;10.99;46.43;99719.91;5033182;28;96507;-80
2021/11/26 08:05:18;;;;;;;32.08;8.60;;;;;;;10.78;45.84;99708.66;5032522;28;99675;-81
2021/11/26 08:07:44;;;;;;;24.60;8.50;;;;;;;11.01;46.37;99718.91;5033754;28;98296;-82
2021/11/26 08:10:15;;;;;;;24.67;7.47;;;;;;;11.13;46.35;99712.94;5033604;28;96581;-84
2021/11/26 08:12:43;;;;;;;20.63;7.20;;;;;;;11.27;45.63;99720.13;5038835;28;96576;-81
2021/11/26 08:15:13;;;;;;;17.42;7.13;;;;;;;11.40;45.74;99713.22;5030480;28;100736;-81
2021/11/26 08:17:39;;;;;;;22.55;7.03;;;;;;;11.29;45.84;99710.31;5031306;28;99155;-82
2021/11/26 08:20:07;;;;;;;20.08;7.07;;;;;;;11.47;45.15;99716.41;5033057;28;96675;-82
2021/11/26 08:22:35;;;;;;;23.77;6.72;;;;;;;11.47;45.54;99706.66;5043199;28;96862;-82
2021/11/26 08:25:02;;;;;;;24.95;7.53;;;;;;;11.57;45.25;99699.06;5025956;28;99988;-81
2021/11/26 08:27:30;;;;;;;20.85;7.80;;;;;;;11.48;45.08;99697.81;5014990;28;97840;-84
2021/11/26 08:29:58;;;;;;;26.38;7.57;;;;;;;11.55;45.12;99693.84;5022738;28;96976;-81
2021/11/26 08:32:26;;;;;;;29.80;7.93;;;;;;;11.65;44.90;99685.41;5024703;28;96781;-82
2021/11/26 08:34:53;;;;;;;26.80;7.72;;;;;;;11.42;45.21;99687.53;5025584;28;98861;-82
2021/11/26 08:37:20;;;;;;;24.05;8.15;;;;;;;11.80;44.85;99684.56;5026705;28;96814;-82
2021/11/26 08:39:49;;;;;;;20.35;7.72;;;;;;;11.96;44.28;99683.59;5028378;28;96868;-80
2021/11/26 08:42:16;;;;;;;19.63;7.78;;;;;;;12.12;44.16;99680.91;5028766;28;96714;-82
2021/11/26 08:44:42;;;;;;;16.48;7.40;;;;;;;12.06;43.60;99678.63;5025017;28;98164;-80
2021/11/26 08:47:09;;;;;;;22.85;8.45;;;;;;;11.98;43.85;99675.56;5026515;28;98148;-81
2021/11/26 08:49:36;;;;;;;24.33;8.02;;;;;;;11.88;44.17;99679.69;5027532;28;96743;-82
2021/11/26 08:52:03;;;;;;;29.42;8.23;;;;;;;12.12;43.60;99682.72;5026937;28;96683;-81
2021/11/26 08:54:29;;;;;;;26.52;8.40;;;;;;;12.04;44.28;99682.28;5024206;28;100091;-81
2021/11/26 08:56:57;;;;;;;21.65;8.00;;;;;;;11.91;44.07;99675.06;5029272;28;100640;-81
2021/11/26 08:59:25;;;;;;;30.10;8.10;;;;;;;12.05;44.15;99671.63;5032184;28;96586;-81
2021/11/26 09:01:53;;;;;;;28.00;8.90;;;;;;;12.16;43.87;99670.97;5030227;28;96858;-82
2021/11/26 09:04:21;;;;;;;30.33;8.73;;;;;;;12.30;43.42;99661.28;5022479;28;99807;-82
2021/11/26 09:06:51;;;;;;;21.33;8.55;;;;;;;12.23;43.55;99669.69;5029607;28;97782;-81
2021/11/26 09:09:18;;;;;;;29.13;9.15;;;;;;;12.20;43.03;99659.28;5026947;28;96585;-80
2021/11/26 09:11:46;;;;;;;21.95;8.27;;;;;;;12.44;42.56;99673.72;5030651;28;96645;-82
2021/11/26 09:14:14;;;;;;;22.15;8.90;;;;;;;12.37;43.22;99657.31;5028854;28;98548;-80
2021/11/26 09:16:41;;;;;;;29.30;9.20;;;;;;;12.38;42.84;99661.69;5029685;28;99846;-82
2021/11/26 09:19:08;;;;;;;24.70;8.93;;;;;;;12.40;43.11;99658.94;5038367;28;96738;-81
2021/11/26 09:21:35;;;;;;;26.15;9.95;;;;;;;12.33;43.18;99665.56;5031438;28;97034;-81
2021/11/26 09:24:02;;;;;;;26.15;9.52;;;;;;;12.24;43.14;99656.34;5026763;28;98325;-81
2021/11/26 09:26:28;;;;;;;21.85;9.25;;;;;;;12.48;42.85;99658.47;5029657;28;98902;-81
2021/11/26 09:28:55;;;;;;;23.50;9.50;;;;;;;12.23;43.20;99652.00;5033157;28;97607;-81
2021/11/26 09:31:24;;;;;;;22.50;10.00;;;;;;;12.23;43.03;99649.34;5031361;28;97673;-81
2021/11/26 09:33:54;;;;;;;24.02;9.70;;;;;;;12.07;42.98;99655.66;5032121;28;97925;-81
2021/11/26 09:36:23;;;;;;;25.98;10.43;;;;;;;12.14;43.17;99651.69;5030394;28;98016;-80
2021/11/26 09:38:49;;;;;;;24.67;9.70;;;;;;;12.28;42.67;99638.47;5032921;28;97060;-82
2021/11/26 09:41:17;;;;;;;24.85;10.55;;;;;;;12.21;42.83;99635.31;5034279;28;96862;-81
2021/11/26 09:43:46;;;;;;;28.35;9.80;;;;;;;12.04;43.39;99626.69;5034476;28;100476;-81
2021/11/26 09:46:23;;;;;;;30.20;9.75;;;;;;;12.19;42.59;99629.28;5035636;28;97722;-82
2021/11/26 09:48:51;;;;;;;25.00;10.07;;;;;;;12.58;41.86;99614.56;5035337;27;96732;-80
2021/11/26 09:51:18;;;;;;;31.75;9.65;;;;;;;12.27;42.10;99619.06;5026811;28;96011;-80
2021/11/26 09:53:44;;;;;;;21.92;8.75;;;;;;;11.89;42.81;99617.84;5032381;28;97924;-81
2021/11/26 09:56:13;;;;;;;23.52;9.50;;;;;;;12.11;42.63;99618.31;5035905;28;96610;-81
2021/11/26 09:58:40;;;;;;;26.00;9.68;;;;;;;12.27;41.79;99619.06;5034518;28;96763;-81
2021/11/26 10:01:09;;;;;;;19.85;8.52;;;;;;;12.45;41.47;99605.69;5034443;27;96740;-80
2021/11/26 10:03:40;;;;;;;24.02;9.60;;;;;;;12.72;40.74;99604.84;5034578;28;97631;-81
2021/11/26 10:06:19;;;;;;;24.70;9.10;;;;;;;12.74;40.56;99594.97;5026411;28;99507;-82
2021/11/26 10:08:59;;;;;;;25.05;9.13;;;;;;;12.85;40.00;99594.31;5033869;28;96688;-81
2021/11/26 10:11:27;;;;;;;22.02;9.60;;;;;;;12.64;40.49;99593.84;5032910;28;96896;-80
2021/11/26 10:13:54;;;;;;;27.67;8.95;;;;;;;12.82;40.68;99596.28;5033715;28;98451;-81
2021/11/26 10:16:22;;;;;;;19.35;9.43;;;;;;;12.70;40.77;99585.50;5025005;28;100647;-81
2021/11/26 10:18:50;;;;;;;24.70;9.60;;;;;;;12.83;40.10;99584.75;5035294;28;98297;-81
2021/11/26 10:21:20;;;;;;;28.17;9.48;;;;;;;12.56;40.62;99582.88;5023996;28;97854;-81
2021/11/26 10:23:50;;;;;;;26.17;9.02;;;;;;;12.74;40.00;99573.75;5022348;28;100785;-80
2021/11/26 10:26:19;;;;;;;25.05;9.90;;;;;;;12.79;40.72;99578.78;5030785;28;100166;-80
2021/11/26 10:28:50;;;;;;;19.25;9.20;;;;;;;12.57;40.33;99578.41;5024692;28;97439;-82
2021/11/26 10:31:30;;;;;;;18.45;9.20;;;;;;;12.67;40.32;99567.13;5032326;28;95946;-83
2021/11/26 10:33:59;;;;;;;25.52;8.77;;;;;;;12.77;40.26;99564.78;5030833;28;100295;-83
2021/11/26 10:36:29;;;;;;;21.23;9.77;;;;;;;13.14;39.27;99561.50;5047628;28;100795;-83
2021/11/26 10:39:00;;;;;;;24.65;11.68;;;;;;;12.53;41.08;99556.56;5047436;28;96594;-84
2021/11/26 10:41:31;;;;;;;23.50;11.15;;;;;;;11.92;42.17;99556.78;5038406;28;96099;-83
2021/11/26 10:44:05;;;;;;;26.77;11.45;;;;;;;12.15;42.35;99548.31;5036764;28;99029;-83
2021/11/26 10:46:59;;;;;;;26.08;12.75;;;;;;;12.21;42.34;99545.28;5043045;28;102036;-81
2021/11/26 10:52:52;;;;;;;27.48;13.57;;;;;;;12.23;42.95;99535.47;5036376;28;97219;-80
2021/11/26 10:58:18;;;;;;;27.15;13.10;;;;;;;12.50;42.17;99526.75;5026283;28;96571;-82
2021/11/26 11:00:47;;;;;;;29.92;12.80;;;;;;;12.71;41.69;99517.47;5033034;28;96704;-81
2021/11/26 11:03:25;;;;;;;28.05;12.75;;;;;;;12.43;42.05;99522.78;5032467;28;96643;-82
2021/11/26 11:05:57;;;;;;;28.98;13.35;;;;;;;12.12;42.28;99518.53;5040610;28;99572;-81
2021/11/26 11:09:07;;;;;;;30.48;12.52;;;;;;;12.03;42.42;99516.44;5054561;28;97640;-81
2021/11/26 11:11:37;;;;;;;28.15;12.75;;;;;;;11.99;42.69;99505.19;5028335;28;96777;-81
2021/11/26 11:14:17;;;;;;;31.70;13.32;;;;;;;11.99;42.40;99505.19;5038423;28;96628;-80
2021/11/26 11:16:48;;;;;;;30.38;13.55;;;;;;;12.07;42.66;99507.38;5039095;28;98270;-82
2021/11/26 11:22:16;;;;;;;26.23;11.93;;;;;;;11.95;42.43;99485.13;5033958;28;96437;-82
2021/11/26 11:24:52;;;;;;;29.23;12.15;;;;;;;12.54;41.13;99481.41;5033434;28;96765;-82
2021/11/26 11:27:23;;;;;;;25.13;12.87;;;;;;;12.70;40.92;99481.28;5026980;28;97645;-81
2021/11/26 11:29:51;;;;;;;26.65;11.90;;;;;;;12.81;40.33;99480.59;5032950;28;99092;-81